Time;durP1;ratioP1;P1;durP2;ratioP2;P2;SDS_P1;SDS_P2;PMS_P1;PMS_P2;Temp;Humidity;BMP_temperature;BMP_pressure;BME280_temperature;BME280_humidity;BME280_pressure;Samples;Min_cycle;Max_cycle;Signal;HPM_P1;HPM_P2
2023/08/17 00:00:09;;;;;;;4.78;0.77;;;16.10;99.90;;;;;;5081497;28;20504;-67
2023/08/17 00:02:35;;;;;;;4.38;1.15;;;16.00;99.90;;;;;;5065050;28;20068;-67
2023/08/17 00:05:01;;;;;;;5.68;1.10;;;16.00;99.90;;;;;;5098465;28;20079;-67
2023/08/17 00:07:26;;;;;;;4.38;0.90;;;15.90;99.90;;;;;;5060542;28;20048;-67
2023/08/17 00:09:52;;;;;;;3.97;1.13;;;15.90;99.90;;;;;;5099089;28;20044;-66
2023/08/17 00:12:17;;;;;;;3.67;1.17;;;15.90;99.90;;;;;;5083606;28;20036;-67
2023/08/17 00:14:43;;;;;;;6.68;0.98;;;16.00;99.90;;;;;;5062330;28;20144;-67
2023/08/17 00:17:08;;;;;;;7.55;1.13;;;16.00;99.90;;;;;;5077872;28;20474;-67
2023/08/17 00:19:34;;;;;;;3.97;1.30;;;16.00;99.90;;;;;;5061941;28;20439;-67
2023/08/17 00:21:59;;;;;;;6.65;1.17;;;16.00;99.90;;;;;;5061754;28;20055;-67
2023/08/17 00:24:25;;;;;;;4.93;0.98;;;16.00;99.90;;;;;;5083275;28;20043;-67
2023/08/17 00:26:51;;;;;;;5.93;1.13;;;15.90;99.90;;;;;;5080390;28;20081;-67
2023/08/17 00:29:17;;;;;;;7.70;1.15;;;15.90;99.90;;;;;;5062893;28;20474;-67
2023/08/17 00:31:42;;;;;;;6.25;1.05;;;16.00;99.90;;;;;;5063164;28;20044;-67
2023/08/17 00:34:08;;;;;;;4.82;0.88;;;16.00;99.90;;;;;;5082045;28;20047;-67
2023/08/17 00:36:33;;;;;;;3.97;0.82;;;15.90;99.90;;;;;;5080136;28;20064;-67
2023/08/17 00:38:59;;;;;;;4.78;1.25;;;16.00;99.90;;;;;;5084763;28;20118;-67
2023/08/17 00:41:25;;;;;;;2.70;0.80;;;15.90;99.90;;;;;;5083515;28;20093;-67
2023/08/17 00:43:50;;;;;;;4.43;0.68;;;16.00;99.90;;;;;;5066250;28;20055;-67
2023/08/17 00:46:17;;;;;;;4.88;0.73;;;15.90;99.90;;;;;;5083549;28;20036;-67
2023/08/17 00:48:43;;;;;;;5.03;0.70;;;15.90;99.90;;;;;;5084989;28;20036;-67
2023/08/17 00:51:09;;;;;;;3.63;1.05;;;15.90;99.90;;;;;;5086400;28;20393;-67
2023/08/17 00:53:35;;;;;;;4.85;1.20;;;15.90;99.90;;;;;;5099728;27;20042;-67
2023/08/17 00:56:01;;;;;;;5.65;1.25;;;15.90;99.90;;;;;;5062522;28;20051;-67
2023/08/17 00:58:27;;;;;;;3.53;0.98;;;15.90;99.90;;;;;;5082281;28;20043;-67
2023/08/17 01:00:53;;;;;;;2.97;0.90;;;15.90;99.90;;;;;;5083957;28;20070;-67
2023/08/17 01:03:20;;;;;;;6.18;1.00;;;15.90;99.90;;;;;;5083856;28;20450;-67
2023/08/17 01:05:46;;;;;;;5.20;1.38;;;15.90;99.90;;;;;;5086282;28;20385;-67
2023/08/17 01:08:12;;;;;;;4.68;1.20;;;15.80;99.90;;;;;;5083674;28;20040;-67
2023/08/17 01:10:57;;;;;;;5.68;0.90;;;15.80;99.90;;;;;;5085636;28;20472;-67
2023/08/17 01:13:31;;;;;;;3.83;1.00;;;15.80;99.90;;;;;;5067916;28;20086;-67
2023/08/17 01:15:59;;;;;;;5.22;1.90;;;15.80;99.90;;;;;;5085965;28;20406;-67
2023/08/17 01:18:31;;;;;;;4.07;0.80;;;15.80;99.90;;;;;;5087689;28;20049;-67
2023/08/17 01:20:57;;;;;;;3.97;0.90;;;15.80;99.90;;;;;;5102698;27;20047;-67
2023/08/17 01:23:23;;;;;;;3.63;0.90;;;15.70;99.90;;;;;;5086145;28;20521;-67
2023/08/17 01:25:49;;;;;;;5.07;0.90;;;15.70;99.90;;;;;;5067630;28;20169;-67
2023/08/17 01:28:14;;;;;;;3.80;0.80;;;15.70;99.90;;;;;;5081196;28;20375;-67
2023/08/17 01:30:54;;;;;;;4.15;1.10;;;15.70;99.90;;;;;;5085540;28;20043;-67
2023/08/17 01:33:42;;;;;;;4.70;1.15;;;15.60;99.90;;;;;;5087519;28;20470;-67
2023/08/17 01:36:18;;;;;;;2.95;1.05;;;15.60;99.90;;;;;;5070108;28;20151;-67
2023/08/17 01:38:45;;;;;;;6.72;1.20;;;15.60;99.90;;;;;;5084862;28;20038;-67
2023/08/17 01:41:15;;;;;;;3.72;0.98;;;15.50;99.90;;;;;;5064490;28;20036;-67
2023/08/17 01:43:45;;;;;;;7.05;1.20;;;15.50;99.90;;;;;;5065231;28;20134;-67
2023/08/17 01:46:15;;;;;;;4.75;0.90;;;15.50;99.90;;;;;;5084262;28;20071;-67
2023/08/17 01:48:41;;;;;;;4.13;0.73;;;15.50;99.90;;;;;;5065893;28;20048;-67
2023/08/17 01:51:07;;;;;;;3.50;0.95;;;15.50;99.90;;;;;;5081652;28;20028;-67
2023/08/17 01:53:32;;;;;;;6.72;1.23;;;15.40;99.90;;;;;;5066487;28;20108;-67
2023/08/17 01:55:58;;;;;;;4.70;1.08;;;15.40;99.90;;;;;;5066831;28;20051;-67
2023/08/17 01:58:23;;;;;;;3.28;1.55;;;15.40;99.90;;;;;;5084459;28;20078;-67
2023/08/17 02:00:49;;;;;;;3.88;0.98;;;15.40;99.90;;;;;;5083524;28;20039;-67
2023/08/17 02:03:14;;;;;;;4.05;1.23;;;15.40;99.90;;;;;;5082169;28;20089;-67
2023/08/17 02:05:45;;;;;;;4.55;0.90;;;15.40;99.90;;;;;;5083913;28;20059;-67
2023/08/17 02:08:10;;;;;;;4.75;1.70;;;15.30;99.90;;;;;;5083361;28;20381;-67
2023/08/17 02:10:36;;;;;;;4.45;1.00;;;15.30;99.90;;;;;;5084087;28;20036;-67
2023/08/17 02:13:02;;;;;;;6.72;1.25;;;15.30;99.90;;;;;;5083733;28;20115;-67
2023/08/17 02:15:27;;;;;;;2.83;1.10;;;15.30;99.90;;;;;;5091557;28;20129;-67
2023/08/17 02:17:53;;;;;;;3.80;1.00;;;15.30;99.90;;;;;;5062440;28;20048;-67
2023/08/17 02:20:19;;;;;;;5.30;1.00;;;15.30;99.90;;;;;;5066684;28;20040;-67
2023/08/17 02:22:44;;;;;;;5.30;1.10;;;15.30;99.90;;;;;;5085928;28;20073;-67
2023/08/17 02:25:10;;;;;;;3.63;1.02;;;15.20;99.90;;;;;;5084188;28;21309;-67
2023/08/17 02:27:35;;;;;;;3.83;1.20;;;15.30;99.90;;;;;;5065273;28;20043;-67
2023/08/17 02:30:03;;;;;;;5.45;1.63;;;15.30;99.90;;;;;;5082822;28;21242;-67
2023/08/17 02:32:28;;;;;;;4.57;0.98;;;15.30;99.90;;;;;;5063375;28;20052;-67
2023/08/17 02:34:54;;;;;;;3.05;0.90;;;15.30;99.90;;;;;;5062291;28;20052;-67
2023/08/17 02:37:20;;;;;;;3.33;1.13;;;15.30;99.90;;;;;;5083106;28;20044;-67
2023/08/17 02:39:45;;;;;;;3.05;0.85;;;15.30;99.90;;;;;;5080973;28;20039;-67
2023/08/17 02:42:11;;;;;;;4.88;0.93;;;15.30;99.90;;;;;;5081991;28;20053;-67
2023/08/17 02:44:36;;;;;;;5.88;1.50;;;15.30;99.90;;;;;;5081298;28;20067;-67
2023/08/17 02:47:02;;;;;;;9.07;1.88;;;15.30;99.90;;;;;;5099869;27;20390;-67
2023/08/17 02:49:28;;;;;;;7.85;1.58;;;15.30;99.90;;;;;;5067492;28;20098;-67
2023/08/17 02:51:53;;;;;;;3.13;1.08;;;15.30;99.90;;;;;;5087899;28;20435;-67
2023/08/17 02:54:19;;;;;;;7.18;1.88;;;15.30;99.90;;;;;;5084319;28;20045;-67
2023/08/17 02:56:44;;;;;;;7.68;1.50;;;15.30;99.90;;;;;;5062186;28;20032;-67
2023/08/17 02:59:10;;;;;;;2.05;0.60;;;15.40;99.90;;;;;;5080670;28;20119;-67
2023/08/17 03:01:35;;;;;;;4.78;1.38;;;15.30;99.90;;;;;;5097429;27;20079;-67
2023/08/17 03:04:01;;;;;;;6.25;1.58;;;15.40;99.90;;;;;;5060274;28;20479;-66
2023/08/17 03:06:27;;;;;;;4.32;1.60;;;15.40;99.90;;;;;;5087331;28;20036;-67
2023/08/17 03:08:53;;;;;;;4.65;1.52;;;15.30;99.90;;;;;;5065127;28;20147;-67
2023/08/17 03:11:20;;;;;;;5.18;1.02;;;15.40;99.90;;;;;;5078774;28;20094;-67
2023/08/17 03:13:47;;;;;;;4.43;1.48;;;15.30;99.90;;;;;;5080428;28;20041;-67
2023/08/17 03:16:13;;;;;;;3.58;1.13;;;15.30;99.90;;;;;;5078484;28;20051;-66
2023/08/17 03:18:39;;;;;;;4.93;1.75;;;15.30;99.90;;;;;;5078707;28;20494;-66
2023/08/17 03:21:04;;;;;;;5.38;1.42;;;15.40;99.90;;;;;;5065915;28;20123;-67
2023/08/17 03:23:30;;;;;;;6.45;1.40;;;15.30;99.90;;;;;;5062655;28;20051;-66
2023/08/17 03:25:56;;;;;;;5.82;1.42;;;15.30;99.90;;;;;;5079600;28;20033;-67
2023/08/17 03:28:21;;;;;;;7.93;1.13;;;15.30;99.90;;;;;;5079746;28;20085;-67
2023/08/17 03:30:47;;;;;;;7.20;1.30;;;15.30;99.90;;;;;;5079456;28;20097;-67
2023/08/17 03:33:12;;;;;;;6.18;1.23;;;15.30;99.90;;;;;;5078164;28;20067;-67
2023/08/17 03:35:38;;;;;;;4.18;1.35;;;15.30;99.90;;;;;;5062754;28;20037;-67
2023/08/17 03:38:03;;;;;;;3.92;1.05;;;15.30;99.90;;;;;;5099023;28;20044;-66
2023/08/17 03:40:29;;;;;;;5.25;1.40;;;15.30;99.90;;;;;;5084365;28;20028;-66
2023/08/17 03:42:55;;;;;;;5.07;1.40;;;15.30;99.90;;;;;;5060517;28;20479;-67
2023/08/17 03:45:20;;;;;;;4.53;1.17;;;15.40;99.90;;;;;;5084657;28;20041;-67
2023/08/17 03:47:46;;;;;;;6.60;1.55;;;15.40;99.90;;;;;;5062808;28;20052;-67
2023/08/17 03:50:11;;;;;;;4.22;1.45;;;15.40;99.90;;;;;;5061897;28;20128;-67
2023/08/17 03:52:37;;;;;;;3.75;1.30;;;15.40;99.90;;;;;;5082876;28;20044;-67
2023/08/17 03:55:03;;;;;;;8.07;2.13;;;15.40;99.90;;;;;;5066804;28;20047;-66
2023/08/17 03:57:28;;;;;;;5.90;0.95;;;15.40;99.90;;;;;;5082772;28;20452;-67
2023/08/17 03:59:54;;;;;;;6.00;1.30;;;15.40;99.90;;;;;;5096585;28;20085;-66
2023/08/17 04:02:19;;;;;;;3.80;1.45;;;15.40;99.90;;;;;;5079069;28;20151;-67
2023/08/17 04:04:45;;;;;;;6.50;1.45;;;15.40;99.90;;;;;;5061794;28;20082;-66
2023/08/17 04:07:10;;;;;;;8.60;1.17;;;15.50;99.90;;;;;;5060006;28;20040;-66
2023/08/17 04:09:36;;;;;;;7.15;1.67;;;15.40;99.90;;;;;;5081113;28;20634;-66
2023/08/17 04:12:04;;;;;;;5.63;1.27;;;15.50;99.90;;;;;;5083231;28;20502;-66
2023/08/17 04:14:30;;;;;;;5.43;1.52;;;15.50;99.90;;;;;;5104606;27;20052;-67
2023/08/17 04:16:56;;;;;;;5.70;1.60;;;15.50;99.90;;;;;;5089942;28;20038;-67
2023/08/17 04:19:22;;;;;;;4.43;1.20;;;15.50;99.90;;;;;;5065151;28;20032;-67
2023/08/17 04:21:47;;;;;;;8.10;1.50;;;15.60;99.90;;;;;;5067315;28;20062;-67
2023/08/17 04:24:13;;;;;;;4.90;1.08;;;15.60;99.90;;;;;;5088626;28;20501;-67
2023/08/17 04:26:38;;;;;;;4.60;0.98;;;15.60;99.90;;;;;;5063216;28;20063;-67
2023/08/17 04:29:04;;;;;;;2.53;1.10;;;15.60;99.90;;;;;;5085846;28;20055;-67
2023/08/17 04:31:29;;;;;;;6.38;1.50;;;15.70;99.90;;;;;;5069257;28;20449;-66
2023/08/17 04:33:55;;;;;;;4.53;1.63;;;15.70;99.90;;;;;;5087856;28;20122;-67
2023/08/17 04:36:21;;;;;;;8.48;1.25;;;15.70;99.90;;;;;;5083554;28;20036;-66
2023/08/17 04:38:46;;;;;;;5.07;0.93;;;15.80;99.90;;;;;;5083210;28;20311;-66
2023/08/17 04:41:12;;;;;;;4.78;1.90;;;15.80;99.90;;;;;;5072185;28;20390;-66
2023/08/17 04:43:37;;;;;;;5.82;1.05;;;15.80;99.90;;;;;;5065943;28;20041;-67
2023/08/17 04:46:03;;;;;;;5.25;0.98;;;15.80;99.90;;;;;;5078598;28;20096;-66
2023/08/17 04:48:28;;;;;;;3.92;0.70;;;15.80;99.90;;;;;;5079402;28;20048;-67
2023/08/17 04:50:54;;;;;;;4.30;1.15;;;15.80;99.90;;;;;;5079057;28;20033;-66
2023/08/17 04:53:20;;;;;;;4.95;1.08;;;15.80;99.90;;;;;;5100575;27;21281;-66
2023/08/17 04:55:45;;;;;;;6.65;1.00;;;15.90;99.90;;;;;;5059320;28;20040;-67
2023/08/17 04:58:11;;;;;;;4.53;1.17;;;15.90;99.90;;;;;;5092849;28;20113;-67
2023/08/17 05:00:37;;;;;;;4.13;0.95;;;16.00;99.90;;;;;;5081599;28;20074;-66
2023/08/17 05:03:03;;;;;;;6.63;1.73;;;15.90;99.90;;;;;;5084671;28;20035;-66
2023/08/17 05:05:29;;;;;;;5.43;1.27;;;16.00;99.90;;;;;;5083675;28;20617;-66
2023/08/17 05:07:54;;;;;;;5.30;1.15;;;16.00;99.90;;;;;;5086166;28;20124;-66
2023/08/17 05:10:20;;;;;;;6.35;1.05;;;16.00;99.90;;;;;;5064782;28;20043;-67
2023/08/17 05:12:46;;;;;;;2.83;0.77;;;16.00;99.90;;;;;;5075283;28;20486;-67
2023/08/17 05:15:12;;;;;;;6.75;2.30;;;16.00;99.90;;;;;;5088057;28;20037;-67
2023/08/17 05:17:38;;;;;;;6.80;1.27;;;16.00;99.90;;;;;;5079736;28;20039;-67
2023/08/17 05:20:04;;;;;;;5.15;0.98;;;16.10;99.90;;;;;;5084529;28;20045;-67
2023/08/17 05:22:30;;;;;;;4.30;0.88;;;16.10;99.90;;;;;;5067468;28;20052;-67
2023/08/17 05:24:55;;;;;;;2.88;0.93;;;16.10;99.90;;;;;;5085055;28;20104;-67
2023/08/17 05:27:21;;;;;;;6.93;1.33;;;16.20;99.90;;;;;;5079321;28;20037;-66
2023/08/17 05:29:46;;;;;;;5.68;0.80;;;16.20;99.90;;;;;;5084384;28;20465;-67
2023/08/17 05:32:12;;;;;;;6.15;1.40;;;16.20;99.90;;;;;;5078729;28;20107;-67
2023/08/17 05:34:37;;;;;;;3.20;1.33;;;16.20;99.90;;;;;;5081510;28;20051;-66
2023/08/17 05:37:03;;;;;;;4.85;0.95;;;16.20;99.90;;;;;;5081969;28;20034;-67
2023/08/17 05:39:29;;;;;;;3.95;1.00;;;16.20;99.90;;;;;;5085484;28;20098;-66
2023/08/17 05:41:54;;;;;;;6.03;1.00;;;16.30;99.90;;;;;;5082344;28;20051;-66
2023/08/17 05:44:20;;;;;;;3.75;1.23;;;16.30;99.90;;;;;;5068760;28;20035;-67
2023/08/17 05:46:45;;;;;;;5.03;1.08;;;16.30;99.90;;;;;;5080544;28;20640;-66
2023/08/17 05:49:11;;;;;;;5.13;1.17;;;16.50;99.90;;;;;;5064962;28;20382;-66
2023/08/17 05:51:36;;;;;;;6.82;1.13;;;16.30;99.90;;;;;;5064346;28;20094;-66
2023/08/17 05:54:03;;;;;;;5.60;1.58;;;16.40;99.90;;;;;;5069648;28;20467;-67
2023/08/17 05:56:28;;;;;;;5.13;0.95;;;16.40;99.90;;;;;;5061903;28;20044;-66
2023/08/17 05:58:54;;;;;;;5.53;0.90;;;16.40;99.90;;;;;;5085058;28;20415;-66
2023/08/17 06:01:20;;;;;;;2.38;0.80;;;16.40;99.90;;;;;;5085303;28;20046;-66
2023/08/17 06:03:45;;;;;;;3.45;0.70;;;16.50;99.90;;;;;;5064002;28;20081;-66
2023/08/17 06:06:11;;;;;;;4.93;1.15;;;16.60;99.90;;;;;;5082303;28;20198;-66
2023/08/17 06:08:36;;;;;;;6.45;1.60;;;16.70;99.90;;;;;;5081204;28;20075;-66
2023/08/17 06:11:02;;;;;;;2.42;0.60;;;16.60;99.90;;;;;;5083221;28;20024;-66
2023/08/17 06:13:28;;;;;;;7.10;1.27;;;16.60;99.90;;;;;;5065210;28;20097;-66
2023/08/17 06:15:55;;;;;;;4.57;1.17;;;16.50;99.90;;;;;;5079978;28;20028;-66
2023/08/17 06:18:21;;;;;;;8.27;1.40;;;16.50;99.90;;;;;;5063176;28;20075;-66
2023/08/17 06:20:48;;;;;;;5.70;1.65;;;16.50;99.90;;;;;;5083424;28;20086;-66
2023/08/17 06:23:13;;;;;;;6.75;1.23;;;16.50;99.90;;;;;;5064676;28;20040;-66
2023/08/17 06:25:39;;;;;;;6.53;1.20;;;16.50;99.90;;;;;;5095139;27;20079;-66
2023/08/17 06:28:06;;;;;;;3.95;0.80;;;16.50;99.90;;;;;;5081725;28;20117;-66
2023/08/17 06:30:31;;;;;;;3.90;1.00;;;16.50;99.90;;;;;;5081368;28;20481;-66
2023/08/17 06:32:57;;;;;;;7.75;0.88;;;16.40;99.90;;;;;;5083624;28;20038;-66
2023/08/17 06:35:23;;;;;;;6.57;1.10;;;16.50;99.90;;;;;;5062873;28;20047;-66
2023/08/17 06:37:48;;;;;;;4.05;1.75;;;16.50;99.90;;;;;;5064560;28;20036;-66
2023/08/17 06:40:14;;;;;;;8.82;1.30;;;16.60;99.90;;;;;;5063756;28;20035;-66
2023/08/17 06:42:39;;;;;;;5.00;1.20;;;16.60;99.90;;;;;;5067312;28;20047;-67
2023/08/17 06:45:06;;;;;;;3.60;0.68;;;16.50;99.90;;;;;;5095647;27;20055;-67
2023/08/17 06:47:32;;;;;;;7.40;1.00;;;16.60;99.90;;;;;;5079809;28;20697;-67
2023/08/17 06:49:57;;;;;;;4.32;1.02;;;16.70;99.90;;;;;;5061131;28;20138;-67
2023/08/17 06:52:24;;;;;;;7.32;1.20;;;16.70;99.90;;;;;;5063414;28;20048;-67
2023/08/17 06:54:50;;;;;;;5.30;1.70;;;16.80;99.90;;;;;;5080963;28;20379;-67
2023/08/17 06:57:15;;;;;;;3.22;0.80;;;16.80;99.90;;;;;;5082151;28;20028;-67
2023/08/17 06:59:41;;;;;;;7.32;1.00;;;17.00;99.90;;;;;;5061753;28;20075;-67
2023/08/17 07:02:06;;;;;;;5.38;1.20;;;17.00;99.90;;;;;;5081093;28;20524;-67
2023/08/17 07:04:32;;;;;;;5.70;1.98;;;17.10;99.90;;;;;;5061614;28;20047;-67
2023/08/17 07:06:58;;;;;;;7.68;1.40;;;17.10;99.90;;;;;;5081235;28;20036;-66
2023/08/17 07:09:24;;;;;;;8.48;1.73;;;17.10;99.90;;;;;;5085322;28;20039;-66
2023/08/17 07:11:49;;;;;;;4.05;0.80;;;17.20;99.90;;;;;;5080347;28;20037;-66
2023/08/17 07:14:15;;;;;;;2.25;0.93;;;17.20;99.90;;;;;;5099843;27;20040;-66
2023/08/17 07:16:41;;;;;;;3.70;0.85;;;17.20;99.90;;;;;;5099203;27;20048;-66
2023/08/17 07:19:06;;;;;;;4.03;0.70;;;17.20;99.90;;;;;;5083203;28;20047;-66
2023/08/17 07:21:32;;;;;;;5.85;1.55;;;17.20;99.90;;;;;;5082041;28;20486;-66
2023/08/17 07:23:57;;;;;;;4.28;0.73;;;17.20;99.90;;;;;;5080816;28;20036;-66
2023/08/17 07:26:23;;;;;;;2.75;0.95;;;17.10;99.90;;;;;;5061811;28;20048;-67
2023/08/17 07:28:49;;;;;;;4.80;1.17;;;17.20;99.90;;;;;;5097434;27;20516;-66
2023/08/17 07:31:15;;;;;;;5.50;0.70;;;17.20;99.90;;;;;;5062154;28;20040;-66
2023/08/17 07:33:41;;;;;;;3.88;0.80;;;17.30;99.90;;;;;;5083176;28;20036;-66
2023/08/17 07:36:06;;;;;;;3.63;0.90;;;17.40;99.90;;;;;;5081439;28;20051;-66
2023/08/17 07:38:32;;;;;;;3.92;0.70;;;17.40;99.90;;;;;;5060665;28;20510;-66
2023/08/17 07:40:59;;;;;;;3.47;0.80;;;17.50;99.90;;;;;;5061784;28;20040;-66
2023/08/17 07:43:24;;;;;;;5.10;1.35;;;17.60;99.90;;;;;;5080823;28;20051;-67
2023/08/17 07:45:56;;;;;;;5.25;0.80;;;17.60;99.90;;;;;;5075998;28;20044;-66
2023/08/17 07:48:22;;;;;;;5.13;0.70;;;17.60;99.90;;;;;;5060185;28;20105;-67
2023/08/17 07:50:52;;;;;;;3.83;0.80;;;17.70;99.90;;;;;;5078912;28;20047;-67
2023/08/17 07:53:18;;;;;;;3.85;0.90;;;17.70;99.90;;;;;;5077951;28;20477;-66
2023/08/17 07:55:44;;;;;;;2.42;0.47;;;17.80;99.90;;;;;;5082337;28;20040;-66
2023/08/17 07:58:10;;;;;;;2.83;0.75;;;17.80;99.90;;;;;;5063760;28;20050;-66
2023/08/17 08:00:36;;;;;;;3.45;0.93;;;17.80;99.90;;;;;;5077797;28;20036;-66
2023/08/17 08:03:01;;;;;;;2.78;0.77;;;17.80;99.90;;;;;;5063744;28;20540;-66
2023/08/17 08:05:27;;;;;;;2.83;0.70;;;17.80;99.90;;;;;;5083252;28;20035;-67
2023/08/17 08:07:53;;;;;;;3.75;0.80;;;17.80;99.90;;;;;;5062935;28;20036;-66
2023/08/17 08:10:19;;;;;;;4.60;1.15;;;17.90;99.90;;;;;;5081217;28;20048;-67
2023/08/17 08:12:44;;;;;;;4.53;0.95;;;18.00;99.90;;;;;;5077668;28;20048;-66
2023/08/17 08:15:13;;;;;;;4.43;0.85;;;18.10;99.90;;;;;;5079903;28;20078;-66
2023/08/17 08:17:38;;;;;;;4.70;0.50;;;18.10;99.90;;;;;;5081612;28;20078;-66
2023/08/17 08:20:05;;;;;;;4.75;0.70;;;18.30;99.90;;;;;;5080647;28;20035;-66
2023/08/17 08:22:30;;;;;;;2.65;0.50;;;18.30;99.90;;;;;;5081986;28;20047;-66
2023/08/17 08:24:57;;;;;;;2.45;0.63;;;18.30;99.90;;;;;;5060593;28;20410;-66
2023/08/17 08:27:24;;;;;;;4.85;0.95;;;18.50;99.90;;;;;;5062148;28;20445;-66
2023/08/17 08:29:50;;;;;;;4.18;0.60;;;18.60;99.90;;;;;;5077742;28;20036;-67
2023/08/17 08:32:15;;;;;;;3.08;0.50;;;18.60;99.90;;;;;;5061091;28;20075;-66
2023/08/17 08:34:41;;;;;;;5.63;1.10;;;18.70;99.90;;;;;;5077709;28;20043;-66
2023/08/17 10:04:19;;;;;;;3.42;0.65;;;19.20;99.90;;;;;;5090356;28;20412;-67
2023/08/17 10:06:48;;;;;;;3.13;0.90;;;19.50;99.90;;;;;;5068890;28;20040;-67
2023/08/17 10:09:18;;;;;;;4.70;0.90;;;19.70;99.90;;;;;;5082421;28;20050;-66
2023/08/17 10:11:45;;;;;;;3.58;0.70;;;19.80;99.90;;;;;;5081924;28;20043;-67
2023/08/17 10:14:20;;;;;;;6.10;0.82;;;19.80;99.90;;;;;;5062421;28;20046;-67
2023/08/17 10:16:49;;;;;;;3.58;0.88;;;19.80;99.90;;;;;;5086826;28;20203;-67
2023/08/17 10:19:28;;;;;;;5.50;1.90;;;19.80;99.90;;;;;;5066429;28;20068;-67
2023/08/17 10:22:06;;;;;;;3.75;0.68;;;19.80;99.90;;;;;;5066805;28;20399;-66
2023/08/17 10:24:35;;;;;;;5.43;1.10;;;19.80;99.90;;;;;;5085510;28;20125;-67
2023/08/17 10:27:03;;;;;;;7.68;1.00;;;19.80;99.90;;;;;;5082274;28;20093;-66
2023/08/17 10:29:29;;;;;;;3.97;0.70;;;19.70;99.90;;;;;;5069080;28;20089;-67
2023/08/17 10:31:55;;;;;;;5.80;0.85;;;19.60;99.90;;;;;;5113058;27;20036;-67
2023/08/17 10:34:21;;;;;;;3.17;0.70;;;19.70;99.90;;;;;;5082143;28;20043;-67
2023/08/17 10:36:48;;;;;;;3.80;0.60;;;19.70;99.90;;;;;;5082165;28;20025;-67
2023/08/17 10:39:25;;;;;;;3.83;0.88;;;19.80;99.90;;;;;;5065447;28;20062;-67
2023/08/17 10:41:53;;;;;;;3.75;0.93;;;19.90;99.90;;;;;;5084176;28;20039;-67
2023/08/17 10:44:37;;;;;;;3.30;0.98;;;19.90;99.90;;;;;;5079344;28;20367;-66
2023/08/17 10:47:23;;;;;;;3.65;0.95;;;20.20;99.90;;;;;;5080815;28;20470;-67
2023/08/17 10:49:49;;;;;;;;;;;19.80;99.90;;;;;;5071162;28;20050;-67
2023/08/17 10:52:24;;;;;;;3.55;1.08;;;19.80;99.90;;;;;;5065406;28;19915;-67
2023/08/17 10:54:49;;;;;;;4.57;1.50;;;20.00;99.90;;;;;;5080541;28;20054;-67
2023/08/17 10:57:27;;;;;;;2.20;0.77;;;19.90;99.90;;;;;;5081445;28;20275;-66
2023/08/17 11:00:26;;;;;;;4.20;0.80;;;20.00;99.90;;;;;;5079922;28;20039;-67
2023/08/17 11:03:01;;;;;;;2.42;0.68;;;20.20;99.90;;;;;;5081558;28;20064;-66
2023/08/17 11:05:47;;;;;;;3.30;0.75;;;20.30;99.90;;;;;;5082580;28;20398;-67
2023/08/17 11:08:50;;;;;;;4.25;1.13;;;20.30;99.90;;;;;;5066049;28;20123;-67
2023/08/17 11:11:16;;;;;;;5.20;1.00;;;20.20;99.90;;;;;;5068052;28;20546;-66
2023/08/17 11:13:44;;;;;;;2.65;0.98;;;20.40;99.90;;;;;;5065044;28;20134;-67
2023/08/17 11:16:11;;;;;;;2.05;0.68;;;20.00;99.90;;;;;;5074403;28;20421;-67
2023/08/17 11:18:38;;;;;;;5.72;0.85;;;20.00;99.90;;;;;;5082129;28;20382;-67
2023/08/17 11:21:05;;;;;;;3.90;1.42;;;20.00;99.90;;;;;;5063149;28;20469;-67
2023/08/17 11:23:32;;;;;;;2.55;0.85;;;19.90;99.90;;;;;;5083914;28;20390;-67
2023/08/17 11:25:58;;;;;;;4.18;1.45;;;19.90;99.90;;;;;;5062635;28;20044;-67
2023/08/17 11:28:24;;;;;;;3.40;1.25;;;19.90;99.90;;;;;;5063511;28;20052;-67
2023/08/17 11:31:00;;;;;;;4.72;1.08;;;19.90;99.90;;;;;;5079678;28;20043;-66
2023/08/17 11:33:27;;;;;;;2.58;0.90;;;19.80;99.90;;;;;;5080176;28;20500;-67
2023/08/17 11:35:56;;;;;;;2.60;0.95;;;19.90;99.90;;;;;;5081896;28;20047;-67
2023/08/17 11:38:22;;;;;;;7.15;1.30;;;19.80;99.90;;;;;;5081973;28;20553;-67
2023/08/17 11:40:49;;;;;;;5.00;1.00;;;19.80;99.90;;;;;;5064048;28;20040;-67
2023/08/17 11:43:15;;;;;;;8.63;1.15;;;19.80;99.90;;;;;;5061645;28;20122;-66
2023/08/17 11:45:41;;;;;;;3.63;1.33;;;19.90;99.90;;;;;;5057360;28;20078;-66
2023/08/17 11:48:07;;;;;;;4.43;1.13;;;19.90;99.90;;;;;;5068632;28;20164;-67
2023/08/17 11:50:33;;;;;;;9.05;1.02;;;19.90;99.90;;;;;;5070983;28;20478;-67
2023/08/17 11:53:01;;;;;;;4.55;1.20;;;19.90;99.90;;;;;;5052830;28;20048;-67
2023/08/17 11:55:28;;;;;;;4.03;1.30;;;19.90;99.90;;;;;;5077754;28;20036;-67
2023/08/17 11:57:54;;;;;;;6.30;1.27;;;20.00;99.90;;;;;;5076793;28;20119;-67
2023/08/17 12:00:22;;;;;;;5.00;1.80;;;20.00;99.90;;;;;;5078252;28;20135;-67
2023/08/17 12:02:52;;;;;;;3.83;1.65;;;20.00;99.90;;;;;;5064610;28;20066;-69
2023/08/17 12:05:27;;;;;;;4.45;1.70;;;20.00;99.90;;;;;;5062310;28;20054;-69
2023/08/17 12:07:53;;;;;;;13.82;4.95;;;20.00;99.90;;;;;;5093984;28;20039;-68
2023/08/17 12:10:19;;;;;;;6.03;1.90;;;20.10;99.90;;;;;;5061079;28;20048;-69
2023/08/17 12:12:47;;;;;;;5.00;1.63;;;20.10;99.90;;;;;;5078689;28;20039;-67
2023/08/17 12:15:13;;;;;;;3.40;1.60;;;20.10;99.90;;;;;;5079074;28;20374;-70
2023/08/17 12:17:46;;;;;;;4.70;1.52;;;20.10;99.90;;;;;;5045943;28;20051;-68
2023/08/17 12:20:20;;;;;;;5.80;3.33;;;20.20;99.90;;;;;;5080715;28;20490;-66
2023/08/17 12:22:46;;;;;;;9.00;3.00;;;20.20;99.90;;;;;;5061640;28;20033;-66
2023/08/17 12:25:12;;;;;;;8.93;4.30;;;20.20;99.90;;;;;;5080384;28;20502;-66
2023/08/17 12:27:39;;;;;;;2.28;1.52;;;20.20;99.90;;;;;;5064508;28;20044;-67
2023/08/17 12:30:11;;;;;;;6.63;2.72;;;20.10;99.90;;;;;;5061328;28;20059;-66
2023/08/17 12:32:36;;;;;;;5.75;2.30;;;20.20;99.90;;;;;;5062407;28;20039;-66
2023/08/17 12:35:03;;;;;;;8.45;1.98;;;20.20;99.90;;;;;;5064409;28;20913;-66
2023/08/17 12:37:29;;;;;;;5.55;1.58;;;20.20;99.90;;;;;;5064123;28;20044;-66
2023/08/17 12:39:55;;;;;;;3.30;1.52;;;20.20;99.90;;;;;;5074544;28;20560;-66
2023/08/17 12:42:21;;;;;;;4.38;1.63;;;20.00;99.90;;;;;;5059465;28;20047;-66
2023/08/17 12:44:46;;;;;;;5.47;1.75;;;20.20;99.90;;;;;;5081242;28;20268;-66
2023/08/17 12:47:12;;;;;;;5.72;2.50;;;20.20;99.90;;;;;;5079195;28;20094;-66
2023/08/17 12:49:38;;;;;;;4.03;2.00;;;20.30;99.90;;;;;;5070239;28;20039;-66
2023/08/17 12:52:03;;;;;;;3.17;2.10;;;20.30;99.90;;;;;;5055669;28;20858;-66
2023/08/17 12:54:29;;;;;;;5.05;2.25;;;20.30;99.90;;;;;;5077737;28;20036;-66
2023/08/17 12:56:55;;;;;;;6.18;2.78;;;20.40;99.90;;;;;;5052105;28;20127;-66
2023/08/17 12:59:20;;;;;;;3.38;2.10;;;20.40;99.90;;;;;;5083670;28;20249;-66
2023/08/17 13:01:46;;;;;;;4.88;1.80;;;20.40;99.90;;;;;;5085336;28;20537;-66
2023/08/17 13:04:11;;;;;;;3.50;1.77;;;20.50;99.90;;;;;;5081980;28;20060;-67
2023/08/17 13:06:38;;;;;;;6.90;2.22;;;20.50;99.90;;;;;;5062847;28;20036;-67
2023/08/17 13:09:05;;;;;;;3.67;1.83;;;20.70;99.90;;;;;;5080110;28;20044;-68
2023/08/17 13:11:31;;;;;;;3.00;1.33;;;20.90;99.90;;;;;;5063464;28;20520;-65
2023/08/17 13:13:56;;;;;;;5.35;2.03;;;20.90;99.90;;;;;;5084315;28;20043;-66
2023/08/17 13:16:22;;;;;;;3.50;1.63;;;21.00;99.90;;;;;;5090545;28;20603;-66
2023/08/17 13:18:48;;;;;;;4.45;1.73;;;21.10;99.90;;;;;;5096825;27;20044;-66
2023/08/17 13:21:15;;;;;;;7.47;1.77;;;20.80;99.90;;;;;;5082863;28;20657;-66
2023/08/17 13:23:41;;;;;;;6.38;1.80;;;20.80;99.90;;;;;;5098178;27;20044;-66
2023/08/17 13:26:07;;;;;;;5.28;1.55;;;20.80;99.90;;;;;;5083344;28;20039;-66
2023/08/17 13:28:32;;;;;;;3.00;1.48;;;20.70;99.90;;;;;;5047614;28;20076;-66
2023/08/17 13:30:58;;;;;;;3.00;1.45;;;20.70;99.90;;;;;;5080244;28;20413;-66
2023/08/17 13:33:23;;;;;;;4.80;1.88;;;20.80;99.90;;;;;;5073453;28;20044;-66
2023/08/17 13:35:49;;;;;;;2.00;1.40;;;20.60;99.90;;;;;;5098112;28;20036;-66
2023/08/17 13:38:15;;;;;;;7.00;1.23;;;20.60;99.90;;;;;;5060163;28;20055;-66
2023/08/17 13:40:40;;;;;;;3.60;1.40;;;20.60;99.90;;;;;;5076498;28;20127;-66
2023/08/17 15:45:33;;;;;;;5.00;2.83;;;19.80;99.90;;;;;;5100660;28;20635;-67
2023/08/17 15:47:59;;;;;;;5.10;3.08;;;19.80;99.90;;;;;;5078179;28;20067;-67
2023/08/17 15:50:25;;;;;;;3.72;2.90;;;19.70;99.90;;;;;;5078460;28;20363;-67
2023/08/17 15:52:50;;;;;;;4.82;3.25;;;19.80;99.90;;;;;;5076933;28;20059;-67
2023/08/17 15:55:16;;;;;;;6.07;2.63;;;19.70;99.90;;;;;;5073819;28;20073;-69
2023/08/17 15:57:41;;;;;;;4.72;3.45;;;19.80;99.90;;;;;;5080201;28;20131;-66
2023/08/17 17:34:27;;;;;;;3.75;2.50;;;19.20;99.90;;;;;;5107622;27;20071;-66
2023/08/17 17:36:53;;;;;;;6.75;2.90;;;19.10;99.90;;;;;;5087002;27;20132;-66
2023/08/17 17:39:18;;;;;;;3.75;2.80;;;19.00;99.90;;;;;;5101728;28;20039;-66
2023/08/17 17:41:44;;;;;;;9.68;3.55;;;19.10;99.90;;;;;;5084665;28;21520;-66
2023/08/17 17:44:09;;;;;;;4.18;2.70;;;19.00;99.90;;;;;;5105483;28;20639;-66
2023/08/17 17:46:35;;;;;;;3.55;2.60;;;19.00;99.90;;;;;;5082630;28;20040;-66
2023/08/17 17:49:01;;;;;;;2.85;2.63;;;19.10;99.90;;;;;;5087703;28;20036;-66